Jacksonville, Texas
Current Conditions -  °F | °C
As of 2:55 PM on Tuesday 27 Jan 2015 (Local Time) from KRFI Reporting Station
Clear Clear  
Wind Chill: 76°   Ceiling: Unl
Heat Index: 77°   Visibility: 10mi
Dew Point: 39°   Wind: 3mph
Humidity: 26%   Direction: 350°N
Pressure: 30.12"   Gusts: NA
Location:  31.96°N, 95.27°W
Report Text: KRFI 272055Z AUTO 35003KT 10SM CLR 25/04 A3012 RMK AO2 T02460040
Loading
Personal Weather Stations






























Interactive Weather Map New forecast layout! Learn more

10-Day Weather Forecast

Advertisements
Track Severe Weather on mobile